createdAt,value
2023-05-17T00:00:10.641Z,6.53
2023-05-17T00:05:34.807Z,6.67
2023-05-17T00:10:57.200Z,7.10
2023-05-17T00:16:19.976Z,6.03
2023-05-17T00:21:42.423Z,6.60
2023-05-17T00:27:04.902Z,6.62
2023-05-17T00:32:27.311Z,6.72
2023-05-17T00:37:51.067Z,7.13
2023-05-17T00:43:13.369Z,7.53
2023-05-17T00:48:36.026Z,7.30
2023-05-17T00:53:58.702Z,7.42
2023-05-17T00:59:23.140Z,6.75
2023-05-17T01:04:45.526Z,6.90
2023-05-17T01:10:08.971Z,7.50
2023-05-17T01:15:41.619Z,6.67
2023-05-17T01:21:06.122Z,7.00
2023-05-17T01:26:47.102Z,6.28
2023-05-17T01:32:10.557Z,6.28
2023-05-17T01:37:32.952Z,6.35
2023-05-17T01:42:59.471Z,5.92
2023-05-17T01:48:43.922Z,5.10
2023-05-17T01:54:12.355Z,5.00
2023-05-17T01:59:37.658Z,4.97
2023-05-17T02:05:00.263Z,4.17
2023-05-17T02:10:23.480Z,4.40
2023-05-17T02:15:45.772Z,4.77
2023-05-17T02:21:08.042Z,4.67
2023-05-17T02:26:30.430Z,4.15
2023-05-17T02:31:52.789Z,3.90
2023-05-17T02:37:15.270Z,4.37
2023-05-17T02:42:38.559Z,5.37
2023-05-17T02:48:00.881Z,5.03
2023-05-17T02:53:23.376Z,4.40
2023-05-17T02:58:45.783Z,4.00
2023-05-17T03:04:08.837Z,4.85
2023-05-17T03:09:32.037Z,3.98
2023-05-17T03:14:54.910Z,3.70
2023-05-17T03:20:19.081Z,3.60
2023-05-17T03:25:41.474Z,4.12
2023-05-17T03:31:03.982Z,2.95
2023-05-17T03:36:27.233Z,2.70
2023-05-17T03:41:50.231Z,2.60
2023-05-17T03:47:12.707Z,2.67
2023-05-17T03:52:35.098Z,2.35
2023-05-17T03:57:57.408Z,2.35
2023-05-17T04:03:20.339Z,2.22
2023-05-17T04:08:43.397Z,2.65
2023-05-17T04:14:06.588Z,2.37
2023-05-17T04:19:29.472Z,2.97
2023-05-17T04:24:52.247Z,2.65
2023-05-17T04:30:15.076Z,2.40
2023-05-17T04:35:37.959Z,2.15
2023-05-17T04:41:00.203Z,3.00
2023-05-17T04:46:22.687Z,2.33
2023-05-17T04:51:44.997Z,2.67
2023-05-17T04:57:07.339Z,3.13
2023-05-17T05:02:29.734Z,2.87
2023-05-17T05:07:52.300Z,2.37
2023-05-17T05:13:14.587Z,3.00
2023-05-17T05:18:37.517Z,2.57
2023-05-17T05:24:00.259Z,2.75
2023-05-17T05:29:22.541Z,2.95
2023-05-17T05:34:45.106Z,3.27
2023-05-17T05:40:07.447Z,2.87
2023-05-17T05:45:30.056Z,3.45
2023-05-17T05:50:55.418Z,3.10
2023-05-17T05:56:17.961Z,3.15
2023-05-17T06:01:41.630Z,2.95
2023-05-17T06:07:04.065Z,3.55
2023-05-17T06:12:26.450Z,3.83
2023-05-17T06:17:48.891Z,4.35
2023-05-17T06:23:12.073Z,3.52
2023-05-17T06:28:34.511Z,3.12
2023-05-17T06:33:57.030Z,4.45
2023-05-17T06:39:19.522Z,3.62
2023-05-17T06:44:42.178Z,3.95
2023-05-17T06:50:05.505Z,4.08
2023-05-17T06:55:29.570Z,3.72
2023-05-17T07:00:52.033Z,4.03
2023-05-17T07:06:14.769Z,4.15
2023-05-17T07:11:37.393Z,4.97
2023-05-17T07:16:59.761Z,4.60
2023-05-17T07:22:23.021Z,4.35
2023-05-17T07:27:50.635Z,4.33
2023-05-17T07:33:13.137Z,4.03
2023-05-17T07:38:38.993Z,4.30
2023-05-17T07:44:02.147Z,3.67
2023-05-17T07:49:24.527Z,4.40
2023-05-17T07:54:48.017Z,3.83
2023-05-17T08:00:12.220Z,3.75
2023-05-17T08:05:34.750Z,3.92
2023-05-17T08:10:57.349Z,3.75
2023-05-17T08:16:20.553Z,3.70
2023-05-17T08:21:43.526Z,3.67
2023-05-17T08:27:05.824Z,4.30
2023-05-17T08:32:29.198Z,3.62
2023-05-17T08:37:51.701Z,3.62
2023-05-17T08:43:16.254Z,3.52
2023-05-17T08:48:42.551Z,4.30
2023-05-17T08:54:07.552Z,4.03
2023-05-17T08:59:32.967Z,4.12
2023-05-17T09:04:56.706Z,3.60
2023-05-17T09:10:19.668Z,4.37
2023-05-17T09:15:44.273Z,3.75
2023-05-17T09:21:11.999Z,3.35
2023-05-17T09:26:45.932Z,3.65
2023-05-17T09:32:20.817Z,3.83
2023-05-17T09:37:46.197Z,3.95
2023-05-17T09:43:09.346Z,3.95
2023-05-17T09:48:38.956Z,4.53
2023-05-17T09:54:14.456Z,3.77
2023-05-17T09:59:39.596Z,3.98
2023-05-17T10:05:05.352Z,3.62
2023-05-17T10:10:29.938Z,3.62
2023-05-17T10:15:53.835Z,3.60
2023-05-17T10:21:20.144Z,3.67
2023-05-17T10:26:43.058Z,3.20
2023-05-17T10:32:07.732Z,3.75
2023-05-17T10:37:32.496Z,3.30
2023-05-17T10:42:57.123Z,3.35
2023-05-17T10:48:22.643Z,3.08
2023-05-17T10:53:53.028Z,3.45
2023-05-17T10:59:45.345Z,3.53
2023-05-17T11:05:10.606Z,3.40
2023-05-17T11:10:33.439Z,3.33
2023-05-17T11:16:12.640Z,3.50
2023-05-17T11:21:36.946Z,4.30
2023-05-17T11:27:00.571Z,3.80
2023-05-17T11:32:24.749Z,3.20
2023-05-17T11:37:49.917Z,3.50
2023-05-17T11:43:35.587Z,3.17
2023-05-17T11:48:59.736Z,3.37
2023-05-17T11:54:22.319Z,3.55
2023-05-17T11:59:46.700Z,3.95
2023-05-17T12:05:09.858Z,2.70
2023-05-17T12:10:34.786Z,3.80
2023-05-17T12:16:01.762Z,3.58
2023-05-17T12:21:28.574Z,2.90
2023-05-17T12:26:58.681Z,2.87
2023-05-17T12:37:37.506Z,3.12
2023-05-17T12:43:01.778Z,3.05
2023-05-17T12:48:24.462Z,3.00
2023-05-17T12:53:50.837Z,2.75
2023-05-17T12:59:34.321Z,2.40
2023-05-17T13:04:56.755Z,2.10
2023-05-17T13:10:28.826Z,2.22
2023-05-17T13:16:03.479Z,1.80
2023-05-17T13:21:26.217Z,1.92
2023-05-17T13:26:48.675Z,2.08
2023-05-17T13:32:12.218Z,1.73
2023-05-17T13:37:34.694Z,2.40
2023-05-17T13:42:57.303Z,2.27
2023-05-17T13:48:20.254Z,2.80
2023-05-17T13:53:44.577Z,1.60
2023-05-17T13:59:07.727Z,1.82
2023-05-17T14:04:30.494Z,2.70
2023-05-17T14:09:53.676Z,2.23
2023-05-17T14:15:18.245Z,2.33
2023-05-17T14:20:40.930Z,2.67
2023-05-17T14:26:05.706Z,2.70
2023-05-17T14:31:30.486Z,2.72
2023-05-17T14:36:52.933Z,2.45
2023-05-17T14:42:15.755Z,3.12
2023-05-17T14:47:39.414Z,2.87
2023-05-17T14:53:02.158Z,2.45
2023-05-17T14:58:24.792Z,3.98
2023-05-17T15:03:47.595Z,3.40
2023-05-17T15:09:12.467Z,2.20
2023-05-17T15:14:36.702Z,2.20
2023-05-17T15:20:00.409Z,2.62
2023-05-17T15:25:23.539Z,2.37
2023-05-17T15:30:46.474Z,2.37
2023-05-17T15:36:11.257Z,2.55
2023-05-17T15:41:37.696Z,2.40
2023-05-17T15:47:02.918Z,2.40
2023-05-17T15:52:24.310Z,2.52
2023-05-17T15:57:49.469Z,2.98
2023-05-17T16:03:11.892Z,2.62
2023-05-17T16:08:34.503Z,2.80
2023-05-17T16:13:57.755Z,2.25
2023-05-17T16:19:20.337Z,2.25
